sensor_id;sensor_type;location;lat;lon;timestamp;P1;durP1;ratioP1;P2;durP2;ratioP2
11681;SDS011;5897;42.640;23.310;2023-05-20T00:01:10;7.22;;;5.97;;
11681;SDS011;5897;42.640;23.310;2023-05-20T00:03:37;6.82;;;5.88;;
11681;SDS011;5897;42.640;23.310;2023-05-20T00:06:04;9.85;;;6.18;;
11681;SDS011;5897;42.640;23.310;2023-05-20T00:08:31;8.90;;;6.05;;
11681;SDS011;5897;42.640;23.310;2023-05-20T00:10:59;7.72;;;6.03;;
11681;SDS011;5897;42.640;23.310;2023-05-20T00:13:26;7.25;;;5.78;;
11681;SDS011;5897;42.640;23.310;2023-05-20T00:15:53;9.10;;;6.22;;
11681;SDS011;5897;42.640;23.310;2023-05-20T00:18:20;10.73;;;5.97;;
11681;SDS011;5897;42.640;23.310;2023-05-20T00:20:47;9.30;;;6.20;;
11681;SDS011;5897;42.640;23.310;2023-05-20T00:23:13;7.55;;;6.47;;
11681;SDS011;5897;42.640;23.310;2023-05-20T00:25:40;9.35;;;5.95;;
11681;SDS011;5897;42.640;23.310;2023-05-20T00:28:08;8.18;;;6.03;;
11681;SDS011;5897;42.640;23.310;2023-05-20T00:30:37;9.85;;;6.57;;
11681;SDS011;5897;42.640;23.310;2023-05-20T00:33:04;7.40;;;6.13;;
11681;SDS011;5897;42.640;23.310;2023-05-20T00:35:31;7.43;;;6.40;;
11681;SDS011;5897;42.640;23.310;2023-05-20T00:37:58;11.38;;;6.75;;
11681;SDS011;5897;42.640;23.310;2023-05-20T00:40:25;8.43;;;6.70;;
11681;SDS011;5897;42.640;23.310;2023-05-20T00:42:51;7.63;;;6.80;;
11681;SDS011;5897;42.640;23.310;2023-05-20T00:45:20;10.27;;;6.68;;
11681;SDS011;5897;42.640;23.310;2023-05-20T00:47:47;9.77;;;6.70;;
11681;SDS011;5897;42.640;23.310;2023-05-20T00:50:15;8.50;;;6.72;;
11681;SDS011;5897;42.640;23.310;2023-05-20T00:52:42;8.48;;;6.90;;
11681;SDS011;5897;42.640;23.310;2023-05-20T00:55:09;7.88;;;6.10;;
11681;SDS011;5897;42.640;23.310;2023-05-20T00:57:36;7.13;;;6.25;;
11681;SDS011;5897;42.640;23.310;2023-05-20T01:00:03;8.82;;;6.65;;
11681;SDS011;5897;42.640;23.310;2023-05-20T01:02:34;8.50;;;6.63;;
11681;SDS011;5897;42.640;23.310;2023-05-20T01:05:01;9.57;;;6.60;;
11681;SDS011;5897;42.640;23.310;2023-05-20T01:07:28;8.27;;;6.82;;
11681;SDS011;5897;42.640;23.310;2023-05-20T01:09:55;10.52;;;7.40;;
11681;SDS011;5897;42.640;23.310;2023-05-20T01:12:22;12.52;;;7.00;;
11681;SDS011;5897;42.640;23.310;2023-05-20T01:14:55;9.23;;;6.90;;
11681;SDS011;5897;42.640;23.310;2023-05-20T01:17:25;8.43;;;7.03;;
11681;SDS011;5897;42.640;23.310;2023-05-20T01:19:58;7.85;;;6.32;;
11681;SDS011;5897;42.640;23.310;2023-05-20T01:22:27;7.50;;;6.55;;
11681;SDS011;5897;42.640;23.310;2023-05-20T01:24:55;9.80;;;7.15;;
11681;SDS011;5897;42.640;23.310;2023-05-20T01:27:21;9.63;;;6.55;;
11681;SDS011;5897;42.640;23.310;2023-05-20T01:29:49;8.88;;;6.57;;
11681;SDS011;5897;42.640;23.310;2023-05-20T01:32:18;7.82;;;7.03;;
11681;SDS011;5897;42.640;23.310;2023-05-20T01:34:46;6.90;;;6.13;;
11681;SDS011;5897;42.640;23.310;2023-05-20T01:37:15;11.30;;;7.70;;
11681;SDS011;5897;42.640;23.310;2023-05-20T01:39:44;8.55;;;6.68;;
11681;SDS011;5897;42.640;23.310;2023-05-20T01:42:12;11.00;;;6.38;;
11681;SDS011;5897;42.640;23.310;2023-05-20T01:44:40;8.48;;;6.50;;
11681;SDS011;5897;42.640;23.310;2023-05-20T01:47:07;8.13;;;6.68;;
11681;SDS011;5897;42.640;23.310;2023-05-20T01:49:34;8.82;;;6.68;;
11681;SDS011;5897;42.640;23.310;2023-05-20T01:52:01;9.23;;;6.60;;
11681;SDS011;5897;42.640;23.310;2023-05-20T01:54:28;9.15;;;6.70;;
11681;SDS011;5897;42.640;23.310;2023-05-20T01:56:56;8.60;;;6.60;;
11681;SDS011;5897;42.640;23.310;2023-05-20T01:59:23;10.55;;;7.00;;
11681;SDS011;5897;42.640;23.310;2023-05-20T02:01:50;7.40;;;6.70;;
11681;SDS011;5897;42.640;23.310;2023-05-20T02:04:17;7.30;;;6.60;;
11681;SDS011;5897;42.640;23.310;2023-05-20T02:06:45;8.98;;;6.18;;
11681;SDS011;5897;42.640;23.310;2023-05-20T02:09:12;8.07;;;6.30;;
11681;SDS011;5897;42.640;23.310;2023-05-20T02:11:39;7.80;;;6.25;;
11681;SDS011;5897;42.640;23.310;2023-05-20T02:14:07;9.35;;;6.85;;
11681;SDS011;5897;42.640;23.310;2023-05-20T02:16:34;11.57;;;6.60;;
11681;SDS011;5897;42.640;23.310;2023-05-20T02:19:01;8.88;;;6.93;;
11681;SDS011;5897;42.640;23.310;2023-05-20T02:21:27;9.07;;;7.78;;
11681;SDS011;5897;42.640;23.310;2023-05-20T02:23:54;14.25;;;11.00;;
11681;SDS011;5897;42.640;23.310;2023-05-20T02:26:21;17.30;;;12.10;;
11681;SDS011;5897;42.640;23.310;2023-05-20T02:28:48;16.55;;;10.18;;
11681;SDS011;5897;42.640;23.310;2023-05-20T02:31:16;10.35;;;8.30;;
11681;SDS011;5897;42.640;23.310;2023-05-20T02:33:43;14.40;;;8.45;;
11681;SDS011;5897;42.640;23.310;2023-05-20T02:36:10;7.78;;;6.95;;
11681;SDS011;5897;42.640;23.310;2023-05-20T02:38:36;9.95;;;7.78;;
11681;SDS011;5897;42.640;23.310;2023-05-20T02:41:03;10.43;;;7.78;;
11681;SDS011;5897;42.640;23.310;2023-05-20T02:43:30;7.90;;;7.07;;
11681;SDS011;5897;42.640;23.310;2023-05-20T02:45:58;11.13;;;7.47;;
11681;SDS011;5897;42.640;23.310;2023-05-20T02:48:26;10.80;;;7.97;;
11681;SDS011;5897;42.640;23.310;2023-05-20T02:50:53;7.03;;;6.32;;
11681;SDS011;5897;42.640;23.310;2023-05-20T02:53:20;8.13;;;6.65;;
11681;SDS011;5897;42.640;23.310;2023-05-20T02:55:47;9.43;;;6.57;;
11681;SDS011;5897;42.640;23.310;2023-05-20T02:58:14;10.18;;;6.68;;
11681;SDS011;5897;42.640;23.310;2023-05-20T03:00:41;10.15;;;6.57;;
11681;SDS011;5897;42.640;23.310;2023-05-20T03:03:09;8.27;;;6.18;;
11681;SDS011;5897;42.640;23.310;2023-05-20T03:05:39;10.80;;;7.28;;
11681;SDS011;5897;42.640;23.310;2023-05-20T03:08:07;7.30;;;6.45;;
11681;SDS011;5897;42.640;23.310;2023-05-20T03:10:34;10.82;;;6.40;;
11681;SDS011;5897;42.640;23.310;2023-05-20T03:13:03;9.27;;;6.97;;
11681;SDS011;5897;42.640;23.310;2023-05-20T03:15:32;10.05;;;6.97;;
11681;SDS011;5897;42.640;23.310;2023-05-20T03:17:59;8.93;;;6.25;;
11681;SDS011;5897;42.640;23.310;2023-05-20T03:20:26;7.85;;;6.57;;
11681;SDS011;5897;42.640;23.310;2023-05-20T03:22:55;8.43;;;6.60;;
11681;SDS011;5897;42.640;23.310;2023-05-20T03:25:23;8.13;;;6.20;;
11681;SDS011;5897;42.640;23.310;2023-05-20T03:27:50;8.85;;;6.53;;
11681;SDS011;5897;42.640;23.310;2023-05-20T03:30:17;9.43;;;7.38;;
11681;SDS011;5897;42.640;23.310;2023-05-20T03:32:44;8.02;;;6.68;;
11681;SDS011;5897;42.640;23.310;2023-05-20T03:35:10;7.25;;;6.15;;
11681;SDS011;5897;42.640;23.310;2023-05-20T03:37:37;6.93;;;6.22;;
11681;SDS011;5897;42.640;23.310;2023-05-20T03:40:07;9.65;;;6.80;;
11681;SDS011;5897;42.640;23.310;2023-05-20T03:42:35;8.52;;;6.45;;
11681;SDS011;5897;42.640;23.310;2023-05-20T03:45:02;9.02;;;6.80;;
11681;SDS011;5897;42.640;23.310;2023-05-20T03:47:29;8.25;;;6.53;;
11681;SDS011;5897;42.640;23.310;2023-05-20T03:49:56;7.13;;;6.43;;
11681;SDS011;5897;42.640;23.310;2023-05-20T03:52:23;9.20;;;7.32;;
11681;SDS011;5897;42.640;23.310;2023-05-20T03:54:50;9.52;;;6.78;;
11681;SDS011;5897;42.640;23.310;2023-05-20T03:57:18;7.28;;;6.40;;
11681;SDS011;5897;42.640;23.310;2023-05-20T03:59:45;11.40;;;6.88;;
11681;SDS011;5897;42.640;23.310;2023-05-20T04:02:11;10.98;;;7.10;;
11681;SDS011;5897;42.640;23.310;2023-05-20T04:04:38;8.05;;;6.65;;
11681;SDS011;5897;42.640;23.310;2023-05-20T04:07:07;7.75;;;6.95;;
11681;SDS011;5897;42.640;23.310;2023-05-20T04:09:33;7.75;;;6.88;;
11681;SDS011;5897;42.640;23.310;2023-05-20T04:12:00;8.80;;;7.32;;
11681;SDS011;5897;42.640;23.310;2023-05-20T04:14:28;9.38;;;7.47;;
11681;SDS011;5897;42.640;23.310;2023-05-20T04:16:55;8.95;;;8.05;;
11681;SDS011;5897;42.640;23.310;2023-05-20T04:19:22;12.70;;;8.43;;
11681;SDS011;5897;42.640;23.310;2023-05-20T04:21:52;13.77;;;7.97;;
11681;SDS011;5897;42.640;23.310;2023-05-20T04:24:19;9.82;;;7.63;;
11681;SDS011;5897;42.640;23.310;2023-05-20T04:26:49;12.52;;;8.95;;
11681;SDS011;5897;42.640;23.310;2023-05-20T04:29:16;14.63;;;8.68;;
11681;SDS011;5897;42.640;23.310;2023-05-20T04:31:44;13.18;;;8.85;;
11681;SDS011;5897;42.640;23.310;2023-05-20T04:34:11;13.65;;;8.95;;
11681;SDS011;5897;42.640;23.310;2023-05-20T04:36:38;14.35;;;10.10;;
11681;SDS011;5897;42.640;23.310;2023-05-20T04:39:05;13.80;;;8.35;;
11681;SDS011;5897;42.640;23.310;2023-05-20T04:41:33;14.35;;;8.43;;
11681;SDS011;5897;42.640;23.310;2023-05-20T04:44:00;10.73;;;7.85;;
11681;SDS011;5897;42.640;23.310;2023-05-20T04:46:27;12.00;;;7.80;;
11681;SDS011;5897;42.640;23.310;2023-05-20T04:48:56;11.88;;;7.60;;
11681;SDS011;5897;42.640;23.310;2023-05-20T04:51:23;11.23;;;7.60;;
11681;SDS011;5897;42.640;23.310;2023-05-20T04:53:50;9.88;;;8.38;;
11681;SDS011;5897;42.640;23.310;2023-05-20T04:56:17;11.27;;;7.97;;
11681;SDS011;5897;42.640;23.310;2023-05-20T04:58:44;14.10;;;9.48;;
11681;SDS011;5897;42.640;23.310;2023-05-20T05:01:10;9.38;;;8.23;;
11681;SDS011;5897;42.640;23.310;2023-05-20T05:03:37;11.07;;;8.68;;
11681;SDS011;5897;42.640;23.310;2023-05-20T05:06:05;14.80;;;9.57;;
11681;SDS011;5897;42.640;23.310;2023-05-20T05:08:32;11.35;;;8.88;;
11681;SDS011;5897;42.640;23.310;2023-05-20T05:10:59;12.32;;;8.25;;
11681;SDS011;5897;42.640;23.310;2023-05-20T05:13:26;12.02;;;8.30;;
11681;SDS011;5897;42.640;23.310;2023-05-20T05:15:59;9.55;;;8.55;;
11681;SDS011;5897;42.640;23.310;2023-05-20T05:18:26;11.18;;;8.77;;
11681;SDS011;5897;42.640;23.310;2023-05-20T05:21:00;13.20;;;8.73;;
11681;SDS011;5897;42.640;23.310;2023-05-20T05:23:28;28.65;;;21.08;;
11681;SDS011;5897;42.640;23.310;2023-05-20T05:25:56;12.38;;;10.20;;
11681;SDS011;5897;42.640;23.310;2023-05-20T05:28:26;15.23;;;8.70;;
11681;SDS011;5897;42.640;23.310;2023-05-20T05:30:53;8.40;;;7.15;;
11681;SDS011;5897;42.640;23.310;2023-05-20T05:33:20;13.38;;;6.97;;
11681;SDS011;5897;42.640;23.310;2023-05-20T05:35:47;9.68;;;6.55;;
11681;SDS011;5897;42.640;23.310;2023-05-20T05:38:15;10.43;;;6.65;;
11681;SDS011;5897;42.640;23.310;2023-05-20T05:40:43;12.02;;;7.60;;
11681;SDS011;5897;42.640;23.310;2023-05-20T05:43:10;10.52;;;8.00;;
11681;SDS011;5897;42.640;23.310;2023-05-20T05:45:37;12.50;;;7.50;;
11681;SDS011;5897;42.640;23.310;2023-05-20T05:48:04;9.43;;;5.85;;
11681;SDS011;5897;42.640;23.310;2023-05-20T05:50:31;13.15;;;8.10;;
11681;SDS011;5897;42.640;23.310;2023-05-20T05:52:57;10.98;;;7.82;;
11681;SDS011;5897;42.640;23.310;2023-05-20T05:55:24;11.70;;;7.60;;
11681;SDS011;5897;42.640;23.310;2023-05-20T05:57:52;12.40;;;6.90;;
11681;SDS011;5897;42.640;23.310;2023-05-20T06:00:19;7.85;;;5.20;;
11681;SDS011;5897;42.640;23.310;2023-05-20T06:02:46;8.60;;;6.05;;
11681;SDS011;5897;42.640;23.310;2023-05-20T06:05:13;11.07;;;7.60;;
11681;SDS011;5897;42.640;23.310;2023-05-20T06:07:40;12.10;;;7.82;;
11681;SDS011;5897;42.640;23.310;2023-05-20T06:10:07;14.30;;;7.60;;
11681;SDS011;5897;42.640;23.310;2023-05-20T06:12:34;10.50;;;5.95;;
11681;SDS011;5897;42.640;23.310;2023-05-20T06:15:03;6.65;;;4.88;;
11681;SDS011;5897;42.640;23.310;2023-05-20T06:17:30;9.50;;;5.30;;
11681;SDS011;5897;42.640;23.310;2023-05-20T06:19:58;8.02;;;4.97;;
11681;SDS011;5897;42.640;23.310;2023-05-20T06:22:25;9.10;;;4.90;;
11681;SDS011;5897;42.640;23.310;2023-05-20T06:24:52;10.38;;;5.45;;
11681;SDS011;5897;42.640;23.310;2023-05-20T06:27:20;7.47;;;5.03;;
11681;SDS011;5897;42.640;23.310;2023-05-20T06:29:48;7.88;;;5.05;;
11681;SDS011;5897;42.640;23.310;2023-05-20T06:32:16;9.60;;;5.03;;
11681;SDS011;5897;42.640;23.310;2023-05-20T06:34:43;10.40;;;5.47;;
11681;SDS011;5897;42.640;23.310;2023-05-20T06:37:09;6.63;;;4.88;;
11681;SDS011;5897;42.640;23.310;2023-05-20T06:39:36;7.15;;;4.88;;
11681;SDS011;5897;42.640;23.310;2023-05-20T06:42:03;4.93;;;4.43;;
11681;SDS011;5897;42.640;23.310;2023-05-20T06:44:30;5.38;;;4.70;;
11681;SDS011;5897;42.640;23.310;2023-05-20T06:46:57;8.55;;;4.97;;
11681;SDS011;5897;42.640;23.310;2023-05-20T06:49:25;10.30;;;5.78;;
11681;SDS011;5897;42.640;23.310;2023-05-20T06:51:52;7.65;;;5.68;;
11681;SDS011;5897;42.640;23.310;2023-05-20T06:54:19;8.50;;;5.60;;
11681;SDS011;5897;42.640;23.310;2023-05-20T06:56:46;6.45;;;5.00;;
11681;SDS011;5897;42.640;23.310;2023-05-20T06:59:12;7.10;;;5.70;;
11681;SDS011;5897;42.640;23.310;2023-05-20T07:01:39;9.13;;;5.53;;
11681;SDS011;5897;42.640;23.310;2023-05-20T07:04:06;10.50;;;5.70;;
11681;SDS011;5897;42.640;23.310;2023-05-20T07:06:34;8.57;;;6.30;;
11681;SDS011;5897;42.640;23.310;2023-05-20T07:09:01;7.32;;;5.20;;
11681;SDS011;5897;42.640;23.310;2023-05-20T07:11:28;9.48;;;5.63;;
11681;SDS011;5897;42.640;23.310;2023-05-20T07:13:54;9.65;;;5.38;;
11681;SDS011;5897;42.640;23.310;2023-05-20T07:16:21;8.73;;;5.80;;
11681;SDS011;5897;42.640;23.310;2023-05-20T07:18:48;8.27;;;5.68;;
11681;SDS011;5897;42.640;23.310;2023-05-20T07:21:15;14.57;;;6.85;;
11681;SDS011;5897;42.640;23.310;2023-05-20T07:23:43;9.88;;;5.32;;
11681;SDS011;5897;42.640;23.310;2023-05-20T07:26:10;7.80;;;5.18;;
11681;SDS011;5897;42.640;23.310;2023-05-20T07:28:37;11.05;;;6.07;;
11681;SDS011;5897;42.640;23.310;2023-05-20T07:31:04;5.88;;;4.97;;
11681;SDS011;5897;42.640;23.310;2023-05-20T07:33:31;8.68;;;5.43;;
11681;SDS011;5897;42.640;23.310;2023-05-20T07:35:57;7.43;;;5.75;;
11681;SDS011;5897;42.640;23.310;2023-05-20T07:38:25;8.35;;;5.50;;
11681;SDS011;5897;42.640;23.310;2023-05-20T07:40:53;8.85;;;6.07;;
11681;SDS011;5897;42.640;23.310;2023-05-20T07:43:20;7.72;;;5.20;;
11681;SDS011;5897;42.640;23.310;2023-05-20T07:45:47;12.35;;;5.65;;
11681;SDS011;5897;42.640;23.310;2023-05-20T07:48:14;10.20;;;5.30;;
11681;SDS011;5897;42.640;23.310;2023-05-20T07:50:41;6.60;;;5.30;;
11681;SDS011;5897;42.640;23.310;2023-05-20T07:53:09;9.65;;;5.65;;
11681;SDS011;5897;42.640;23.310;2023-05-20T07:55:36;12.20;;;6.47;;
11681;SDS011;5897;42.640;23.310;2023-05-20T07:58:04;12.15;;;6.03;;
11681;SDS011;5897;42.640;23.310;2023-05-20T08:00:31;8.38;;;6.10;;
11681;SDS011;5897;42.640;23.310;2023-05-20T08:02:58;8.85;;;6.72;;
11681;SDS011;5897;42.640;23.310;2023-05-20T08:05:24;9.02;;;5.10;;
11681;SDS011;5897;42.640;23.310;2023-05-20T08:07:51;11.88;;;5.20;;
11681;SDS011;5897;42.640;23.310;2023-05-20T08:10:18;9.10;;;5.95;;
11681;SDS011;5897;42.640;23.310;2023-05-20T08:12:45;10.10;;;5.43;;
11681;SDS011;5897;42.640;23.310;2023-05-20T08:15:13;11.95;;;5.28;;
11681;SDS011;5897;42.640;23.310;2023-05-20T08:17:41;9.45;;;6.95;;
11681;SDS011;5897;42.640;23.310;2023-05-20T08:20:08;10.00;;;6.10;;
11681;SDS011;5897;42.640;23.310;2023-05-20T08:22:36;7.22;;;6.03;;
11681;SDS011;5897;42.640;23.310;2023-05-20T08:25:06;9.55;;;5.38;;
11681;SDS011;5897;42.640;23.310;2023-05-20T08:27:34;12.65;;;6.53;;
11681;SDS011;5897;42.640;23.310;2023-05-20T08:30:01;8.57;;;5.47;;
11681;SDS011;5897;42.640;23.310;2023-05-20T08:32:29;7.32;;;5.40;;
11681;SDS011;5897;42.640;23.310;2023-05-20T08:34:56;7.88;;;5.60;;
11681;SDS011;5897;42.640;23.310;2023-05-20T08:37:25;7.57;;;5.80;;
11681;SDS011;5897;42.640;23.310;2023-05-20T08:39:52;8.75;;;6.13;;
11681;SDS011;5897;42.640;23.310;2023-05-20T08:42:20;7.60;;;6.43;;
11681;SDS011;5897;42.640;23.310;2023-05-20T08:44:48;6.57;;;5.88;;
11681;SDS011;5897;42.640;23.310;2023-05-20T08:47:16;6.78;;;5.40;;
11681;SDS011;5897;42.640;23.310;2023-05-20T08:49:46;7.85;;;6.10;;
11681;SDS011;5897;42.640;23.310;2023-05-20T08:52:13;5.95;;;5.30;;
11681;SDS011;5897;42.640;23.310;2023-05-20T08:54:43;14.48;;;5.90;;
11681;SDS011;5897;42.640;23.310;2023-05-20T08:57:11;7.82;;;5.68;;
11681;SDS011;5897;42.640;23.310;2023-05-20T08:59:40;7.10;;;5.50;;
11681;SDS011;5897;42.640;23.310;2023-05-20T09:02:08;7.63;;;5.85;;
11681;SDS011;5897;42.640;23.310;2023-05-20T09:04:36;7.90;;;5.70;;
11681;SDS011;5897;42.640;23.310;2023-05-20T09:07:04;7.40;;;5.47;;
11681;SDS011;5897;42.640;23.310;2023-05-20T09:09:32;5.57;;;5.00;;
11681;SDS011;5897;42.640;23.310;2023-05-20T09:12:00;5.70;;;5.15;;
11681;SDS011;5897;42.640;23.310;2023-05-20T09:14:27;8.75;;;5.90;;
11681;SDS011;5897;42.640;23.310;2023-05-20T09:16:54;8.57;;;5.78;;
11681;SDS011;5897;42.640;23.310;2023-05-20T09:19:21;8.48;;;6.15;;
11681;SDS011;5897;42.640;23.310;2023-05-20T09:21:50;9.65;;;4.93;;
11681;SDS011;5897;42.640;23.310;2023-05-20T09:24:21;7.10;;;5.72;;
11681;SDS011;5897;42.640;23.310;2023-05-20T09:26:49;5.97;;;4.97;;
11681;SDS011;5897;42.640;23.310;2023-05-20T09:29:16;7.50;;;5.10;;
11681;SDS011;5897;42.640;23.310;2023-05-20T09:31:43;7.10;;;5.20;;
11681;SDS011;5897;42.640;23.310;2023-05-20T09:34:10;6.63;;;5.68;;
11681;SDS011;5897;42.640;23.310;2023-05-20T09:36:38;8.00;;;5.85;;
11681;SDS011;5897;42.640;23.310;2023-05-20T09:39:05;10.52;;;6.13;;
11681;SDS011;5897;42.640;23.310;2023-05-20T09:41:37;6.97;;;5.60;;
11681;SDS011;5897;42.640;23.310;2023-05-20T09:44:04;7.13;;;5.25;;
11681;SDS011;5897;42.640;23.310;2023-05-20T09:46:32;8.20;;;5.90;;
11681;SDS011;5897;42.640;23.310;2023-05-20T09:48:59;8.02;;;5.63;;
11681;SDS011;5897;42.640;23.310;2023-05-20T09:51:26;6.25;;;5.65;;
11681;SDS011;5897;42.640;23.310;2023-05-20T09:53:56;5.95;;;4.80;;
11681;SDS011;5897;42.640;23.310;2023-05-20T09:56:23;7.00;;;5.15;;
11681;SDS011;5897;42.640;23.310;2023-05-20T09:58:52;5.88;;;5.03;;
11681;SDS011;5897;42.640;23.310;2023-05-20T10:01:22;5.80;;;5.20;;
11681;SDS011;5897;42.640;23.310;2023-05-20T10:03:49;5.60;;;5.00;;
11681;SDS011;5897;42.640;23.310;2023-05-20T10:06:22;7.93;;;5.90;;
11681;SDS011;5897;42.640;23.310;2023-05-20T10:09:13;7.57;;;5.80;;
11681;SDS011;5897;42.640;23.310;2023-05-20T10:11:56;9.88;;;5.90;;
11681;SDS011;5897;42.640;23.310;2023-05-20T10:14:37;8.05;;;5.20;;
11681;SDS011;5897;42.640;23.310;2023-05-20T10:17:13;9.90;;;5.63;;
11681;SDS011;5897;42.640;23.310;2023-05-20T10:19:46;7.65;;;4.75;;
11681;SDS011;5897;42.640;23.310;2023-05-20T10:22:14;6.82;;;4.63;;
11681;SDS011;5897;42.640;23.310;2023-05-20T10:24:56;5.35;;;4.70;;
11681;SDS011;5897;42.640;23.310;2023-05-20T10:27:24;6.90;;;4.90;;
11681;SDS011;5897;42.640;23.310;2023-05-20T10:29:53;6.05;;;5.20;;
11681;SDS011;5897;42.640;23.310;2023-05-20T10:32:24;5.75;;;4.32;;
11681;SDS011;5897;42.640;23.310;2023-05-20T10:34:52;7.13;;;4.43;;
11681;SDS011;5897;42.640;23.310;2023-05-20T10:37:26;6.13;;;4.60;;
11681;SDS011;5897;42.640;23.310;2023-05-20T10:40:07;5.18;;;4.68;;
11681;SDS011;5897;42.640;23.310;2023-05-20T10:42:35;6.20;;;3.95;;
11681;SDS011;5897;42.640;23.310;2023-05-20T10:45:04;4.70;;;4.15;;
11681;SDS011;5897;42.640;23.310;2023-05-20T10:47:32;7.53;;;4.93;;
11681;SDS011;5897;42.640;23.310;2023-05-20T10:50:00;6.40;;;4.38;;
11681;SDS011;5897;42.640;23.310;2023-05-20T10:52:31;6.13;;;4.10;;
11681;SDS011;5897;42.640;23.310;2023-05-20T10:54:59;4.78;;;3.97;;
11681;SDS011;5897;42.640;23.310;2023-05-20T10:57:27;4.68;;;4.15;;
11681;SDS011;5897;42.640;23.310;2023-05-20T10:59:55;6.75;;;3.60;;
11681;SDS011;5897;42.640;23.310;2023-05-20T11:02:24;4.90;;;4.15;;
11681;SDS011;5897;42.640;23.310;2023-05-20T11:04:52;5.03;;;4.10;;
11681;SDS011;5897;42.640;23.310;2023-05-20T11:07:25;6.85;;;4.18;;
11681;SDS011;5897;42.640;23.310;2023-05-20T11:09:53;4.47;;;4.07;;
11681;SDS011;5897;42.640;23.310;2023-05-20T11:12:20;7.63;;;4.20;;
11681;SDS011;5897;42.640;23.310;2023-05-20T11:14:47;5.13;;;4.63;;
11681;SDS011;5897;42.640;23.310;2023-05-20T11:17:14;8.10;;;4.38;;
11681;SDS011;5897;42.640;23.310;2023-05-20T11:19:42;7.68;;;4.60;;
11681;SDS011;5897;42.640;23.310;2023-05-20T11:22:09;6.35;;;4.70;;
11681;SDS011;5897;42.640;23.310;2023-05-20T11:24:36;8.40;;;4.72;;
11681;SDS011;5897;42.640;23.310;2023-05-20T11:27:03;6.97;;;4.72;;
11681;SDS011;5897;42.640;23.310;2023-05-20T11:29:30;5.53;;;4.28;;
11681;SDS011;5897;42.640;23.310;2023-05-20T11:31:58;7.07;;;4.60;;
11681;SDS011;5897;42.640;23.310;2023-05-20T11:34:25;5.57;;;4.63;;
11681;SDS011;5897;42.640;23.310;2023-05-20T11:37:00;5.45;;;4.70;;
11681;SDS011;5897;42.640;23.310;2023-05-20T11:39:28;9.27;;;5.20;;
11681;SDS011;5897;42.640;23.310;2023-05-20T11:41:56;8.90;;;4.72;;
11681;SDS011;5897;42.640;23.310;2023-05-20T11:44:23;8.77;;;4.70;;
11681;SDS011;5897;42.640;23.310;2023-05-20T11:46:50;5.78;;;4.95;;
11681;SDS011;5897;42.640;23.310;2023-05-20T11:49:17;8.80;;;4.80;;
11681;SDS011;5897;42.640;23.310;2023-05-20T11:51:43;7.90;;;4.65;;
11681;SDS011;5897;42.640;23.310;2023-05-20T11:54:12;9.77;;;4.78;;
11681;SDS011;5897;42.640;23.310;2023-05-20T11:56:38;7.60;;;4.80;;
11681;SDS011;5897;42.640;23.310;2023-05-20T11:59:07;7.95;;;4.72;;
11681;SDS011;5897;42.640;23.310;2023-05-20T12:01:35;15.30;;;5.63;;
11681;SDS011;5897;42.640;23.310;2023-05-20T12:04:05;8.05;;;4.45;;
11681;SDS011;5897;42.640;23.310;2023-05-20T12:06:31;7.18;;;4.50;;
11681;SDS011;5897;42.640;23.310;2023-05-20T12:08:59;7.78;;;4.40;;
11681;SDS011;5897;42.640;23.310;2023-05-20T12:11:32;8.60;;;4.40;;
11681;SDS011;5897;42.640;23.310;2023-05-20T12:13:59;12.10;;;4.70;;
11681;SDS011;5897;42.640;23.310;2023-05-20T12:16:26;7.25;;;5.20;;
11681;SDS011;5897;42.640;23.310;2023-05-20T12:18:53;8.75;;;5.07;;
11681;SDS011;5897;42.640;23.310;2023-05-20T12:21:20;8.82;;;4.50;;
11681;SDS011;5897;42.640;23.310;2023-05-20T12:23:47;11.32;;;4.82;;
11681;SDS011;5897;42.640;23.310;2023-05-20T12:26:14;8.85;;;4.70;;
11681;SDS011;5897;42.640;23.310;2023-05-20T12:28:42;11.13;;;7.28;;
11681;SDS011;5897;42.640;23.310;2023-05-20T12:31:09;15.02;;;9.18;;
11681;SDS011;5897;42.640;23.310;2023-05-20T12:33:36;6.28;;;3.90;;
11681;SDS011;5897;42.640;23.310;2023-05-20T12:36:03;7.20;;;3.65;;
11681;SDS011;5897;42.640;23.310;2023-05-20T12:38:30;7.97;;;3.95;;
11681;SDS011;5897;42.640;23.310;2023-05-20T12:40:57;5.75;;;3.15;;
11681;SDS011;5897;42.640;23.310;2023-05-20T12:43:24;7.50;;;3.08;;
11681;SDS011;5897;42.640;23.310;2023-05-20T12:45:52;5.18;;;3.42;;
11681;SDS011;5897;42.640;23.310;2023-05-20T12:48:20;5.13;;;3.92;;
11681;SDS011;5897;42.640;23.310;2023-05-20T12:50:46;5.82;;;3.70;;
11681;SDS011;5897;42.640;23.310;2023-05-20T12:53:14;5.32;;;4.80;;
11681;SDS011;5897;42.640;23.310;2023-05-20T12:55:40;5.75;;;3.58;;
11681;SDS011;5897;42.640;23.310;2023-05-20T12:58:07;5.95;;;3.85;;
11681;SDS011;5897;42.640;23.310;2023-05-20T13:00:34;4.50;;;3.40;;
11681;SDS011;5897;42.640;23.310;2023-05-20T13:03:02;4.32;;;3.92;;
11681;SDS011;5897;42.640;23.310;2023-05-20T13:05:29;6.15;;;4.80;;
11681;SDS011;5897;42.640;23.310;2023-05-20T13:07:56;6.63;;;3.85;;
11681;SDS011;5897;42.640;23.310;2023-05-20T13:10:22;6.55;;;3.67;;
11681;SDS011;5897;42.640;23.310;2023-05-20T13:12:49;5.70;;;3.70;;
11681;SDS011;5897;42.640;23.310;2023-05-20T13:15:16;4.43;;;3.40;;
11681;SDS011;5897;42.640;23.310;2023-05-20T13:17:43;6.75;;;3.33;;
11681;SDS011;5897;42.640;23.310;2023-05-20T13:20:11;5.95;;;3.35;;
11681;SDS011;5897;42.640;23.310;2023-05-20T13:22:39;4.63;;;2.97;;
11681;SDS011;5897;42.640;23.310;2023-05-20T13:25:08;5.88;;;3.47;;
11681;SDS011;5897;42.640;23.310;2023-05-20T13:27:35;4.53;;;3.08;;
11681;SDS011;5897;42.640;23.310;2023-05-20T13:30:02;8.23;;;3.38;;
11681;SDS011;5897;42.640;23.310;2023-05-20T13:32:30;5.20;;;4.03;;
11681;SDS011;5897;42.640;23.310;2023-05-20T13:34:57;5.25;;;3.70;;
11681;SDS011;5897;42.640;23.310;2023-05-20T13:37:26;4.82;;;3.72;;
11681;SDS011;5897;42.640;23.310;2023-05-20T13:39:52;6.55;;;3.70;;
11681;SDS011;5897;42.640;23.310;2023-05-20T13:42:20;4.63;;;3.35;;
11681;SDS011;5897;42.640;23.310;2023-05-20T13:44:46;3.97;;;3.58;;
11681;SDS011;5897;42.640;23.310;2023-05-20T13:47:13;5.97;;;4.20;;
11681;SDS011;5897;42.640;23.310;2023-05-20T13:49:40;6.03;;;4.30;;
11681;SDS011;5897;42.640;23.310;2023-05-20T13:52:09;3.88;;;3.55;;
11681;SDS011;5897;42.640;23.310;2023-05-20T13:54:37;6.45;;;3.40;;
11681;SDS011;5897;42.640;23.310;2023-05-20T13:57:04;4.43;;;3.45;;
11681;SDS011;5897;42.640;23.310;2023-05-20T13:59:32;3.47;;;3.17;;
11681;SDS011;5897;42.640;23.310;2023-05-20T14:01:58;4.55;;;3.30;;
11681;SDS011;5897;42.640;23.310;2023-05-20T14:04:26;3.60;;;3.20;;
11681;SDS011;5897;42.640;23.310;2023-05-20T14:06:52;4.22;;;3.40;;
11681;SDS011;5897;42.640;23.310;2023-05-20T14:09:19;3.33;;;3.03;;
11681;SDS011;5897;42.640;23.310;2023-05-20T14:11:47;6.25;;;3.45;;
11681;SDS011;5897;42.640;23.310;2023-05-20T14:14:15;4.70;;;2.92;;
11681;SDS011;5897;42.640;23.310;2023-05-20T14:16:42;5.13;;;3.25;;
11681;SDS011;5897;42.640;23.310;2023-05-20T14:19:08;4.15;;;3.30;;
11681;SDS011;5897;42.640;23.310;2023-05-20T14:21:35;5.00;;;3.20;;
11681;SDS011;5897;42.640;23.310;2023-05-20T14:24:02;5.38;;;3.10;;
11681;SDS011;5897;42.640;23.310;2023-05-20T14:26:29;4.10;;;3.20;;
11681;SDS011;5897;42.640;23.310;2023-05-20T14:28:57;4.57;;;3.03;;
11681;SDS011;5897;42.640;23.310;2023-05-20T14:31:24;8.65;;;3.85;;
11681;SDS011;5897;42.640;23.310;2023-05-20T14:33:52;4.60;;;3.35;;
11681;SDS011;5897;42.640;23.310;2023-05-20T14:36:19;3.78;;;3.45;;
11681;SDS011;5897;42.640;23.310;2023-05-20T14:38:45;6.90;;;4.10;;
11681;SDS011;5897;42.640;23.310;2023-05-20T14:41:12;4.55;;;4.05;;
11681;SDS011;5897;42.640;23.310;2023-05-20T14:43:39;4.57;;;4.13;;
11681;SDS011;5897;42.640;23.310;2023-05-20T14:46:07;8.65;;;4.63;;
11681;SDS011;5897;42.640;23.310;2023-05-20T14:48:34;5.60;;;4.28;;